DuBois Regional Airport
KDUJ : now visible

Airfield :











YOU CAN JOIN US ON...

 
LOGIN :

Register | Disclaimer

   EN    FR    IT 

 









Legend :    VFR   Marginal VFR   IFR   Intensive IFR   Very Intensive IFR
Visi :
Ceiling :
>= 8 km
>= 3000ft
5 to 8 km
1000 to 3000 ft
1500m to 5 km
500 to 1000 ft
800 to 1500m
200 to 500 ft
< 800m
< 200 ft
Symbols :   Thunderstorms  Fog  Heavy snow  Heavy precipitations  Wind > 20 kt






- Airport Elevation : 1817 ft
- IATA code : DUJ


KDUJ - DuBois Regional

CURRENT METAR :
  • 090053Z AUTO 05004KT 10SM BKN060 BKN080 27/19 A2998 RMK AO2 SLP137 T02670189

EXPIRED METARs :
  • 082353Z AUTO 23003KT 10SM CLR 26/18 A2996 RMK AO2 SLP132 T02610183 10317 20261 55002
  • 082253Z AUTO 34005KT 10SM FEW055 31/17 A2996 RMK AO2 LTG DSNT E AND SE SLP129 T03060172

TAF KDUJ
Valid from the 09 at 00:00 until the 10 at 00:00 UTC


082327Z 0900/0924 34005KT P6SM SKC
FM090600 00000KT 4SM BR SKC
FM091800 13004KT P6SM SCT050
KZOB FIR / North America



MET'MAP, your aeronautical weather chart ! - Copyright ORBIFLY December 2007 - Disclaimer

ORBIFLY MET'MAP TEAM :

Programming & Development : Alexandra Zaïnal
Concept & original design : Baudouin d'Aumeries
Assistance for programming : Marc-Olivier Méhu
Technical & hardware support : Manuel Goepfert

Contact : metmap@orbifly.com




SOURCES & CREDITS :

   NOAA       Earth
Advisory